Main page
METAR-TAF:

METAR-TAF

Airports :

João Paulo II Airport

Ponta Delgada, Azores, Portugal

latitude: 37-44N, longitude: 025-42W, elevation: 71 m

Current weather observation

The report was made 35 minutes ago, at 23:00 UTC
Wind 4 kt from the North, varying between North/Northwest and North/Northeast
Temperature 20°C
Humidity 83%
Pressure 1025 hPa
Visibility 10 km or more
Few clouds at a height of 2500 ft

METAR: LPPD 092300Z 35004KT 330V030 9999 FEW025 20/17 Q1025

Time: 23:35 (23:35 UTC)

Forecast

The report was made 6 hours and 35 minutes ago, at 17:00 UTC
Forecast valid from 09 at 18 UTC to 10 at 18 UTC
Wind 5 kt from variable directions
Visibility 10 km or more
Few clouds at a height of 1800 ft
Scattered clouds at a height of 3500 ft
Temporary
from 09 at 18 UTC to 10 at 18 UTC
Scattered clouds at a height of 2500 ft
Becoming
from 09 at 22 UTC to 09 at 24 UTC
Wind 10 kt from the North/Northeast

TAF: LPPD 091700Z 0918/1018 VRB05KT 9999 FEW018 SCT035 TEMPO 0918/1018 SCT025 BECMG 0922/0924 03010KT

Weather observations and forecasts of more than 4000 airports (METAR and TAF reports).

The available stations are represented by yellow and red dots on the map.

Hover mouse over dot to see the name of the station.

Then click to see weather observations and forecasts.

To change the map : click on the green buttons with a black cross to zoom in, on the green button with a dash to zoom out, or on the green arrows for adjacent maps.


METAR-TAF: